North Woods Beach, Wisconsin
Current Conditions -  °F | °C
As of 9:21 AM on Sunday 21 Dec 2014 (Local Time) from KHYR Reporting Station
Haze Haze  
Wind Chill: -5°   Ceiling: 800
Heat Index: -1°   Visibility: 2.5mi
Dew Point: -2°   Wind: 8mph
Humidity: 89%   Direction: 170°S
Pressure: 29.92"   Gusts: NA
Location:  46.0387°N, 91.2627°W
Report Text: KHYR 211521Z AUTO 17007KT 2 1/2SM BR OVC008 M01/M02 A2992 RMK AO2 T10061022
Loading
Personal Weather Stations






























Interactive Weather Map New forecast layout! Learn more

10-Day Weather Forecast

Advertisements
Track Severe Weather on mobile